Station Historical Data
Daily Summary for January 30, 2017 Units:  Both    English   Metric
« Previous Day
Next Day »
Daily Weekly Monthly Yearly Custom
  High: Low: Average:
Temperature: 24.2 °F /  -4.3 °C 11.4 °F /  -11.4 °C 19.2 °F /  -7.1 °C
Dew Point: 17.3 °F /  -8.2 °C 7.7 °F /  -13.5 °C 13 °F /  -10.6 °C
Humidity: 92% 59% 77%
Wind Speed: 9.0mph /  14.5km/h - 1.8mph /  2.9km/h
Wind Gust: 12.0mph /  19.3km/h - -
Wind- - WSW
Pressure: 29.98 in /  1015.1 hPa 29.79 in /  1008.7 hPa -
Precipitation: 0.00 in /  0 mm    
Historical Graphs
 
 
Tabular Data for January 30, 2017
Time Temperature Dew Point Pressure Wind Wind Speed Wind Gust Humidity Rainfall Rate (Hourly)
00:04 21.7 °F /  -5.7 °C 17.3 °F /  -8.2 °C 29.79in /  1008.7hPa NNW 2.0mph /  3.2km/h 5.0mph /  8km/h 83% 0.00in /  0mm
00:09 21.7 °F /  -5.7 °C 17.3 °F /  -8.2 °C 29.79in /  1008.7hPa North 2.0mph /  3.2km/h 4.0mph /  6.4km/h 83% 0.00in /  0mm
00:14 21.6 °F /  -5.8 °C 17.0 °F /  -8.3 °C 29.80in /  1009hPa NNW 1.0mph /  1.6km/h 4.0mph /  6.4km/h 82% 0.00in /  0mm
00:19 21.5 °F /  -5.8 °C 16.9 °F /  -8.4 °C 29.79in /  1008.7hPa Calm     82% 0.00in /  0mm
00:24 21.3 °F /  -5.9 °C 16.7 °F /  -8.5 °C 29.79in /  1008.7hPa NNW 1.0mph /  1.6km/h 5.0mph /  8km/h 82% 0.00in /  0mm
00:29 21.2 °F /  -6 °C 16.3 °F /  -8.7 °C 29.79in /  1008.7hPa NNW 1.0mph /  1.6km/h 5.0mph /  8km/h 81% 0.00in /  0mm
00:34 20.9 °F /  -6.2 °C 16.0 °F /  -8.9 °C 29.79in /  1008.7hPa NNW 1.0mph /  1.6km/h 2.0mph /  3.2km/h 81% 0.00in /  0mm
00:39 20.7 °F /  -6.3 °C 15.8 °F /  -9 °C 29.79in /  1008.7hPa Calm     81% 0.00in /  0mm
00:44 20.4 °F /  -6.4 °C 15.2 °F /  -9.3 °C 29.79in /  1008.7hPa Calm     80% 0.00in /  0mm
00:49 20.0 °F /  -6.7 °C 14.5 °F /  -9.7 °C 29.79in /  1008.7hPa Calm     79% 0.00in /  0mm
00:54 19.6 °F /  -6.9 °C 14.1 °F /  -9.9 °C 29.80in /  1009hPa Calm     79% 0.00in /  0mm
00:59 19.3 °F /  -7.1 °C 13.9 °F /  -10.1 °C 29.80in /  1009hPa Calm     79% 0.00in /  0mm
01:04 19.1 °F /  -7.2 °C 13.7 °F /  -10.2 °C 29.80in /  1009hPa Calm     79% 0.00in /  0mm
01:09 18.8 °F /  -7.3 °C 13.4 °F /  -10.3 °C 29.80in /  1009hPa Calm     79% 0.00in /  0mm
01:14 18.4 °F /  -7.6 °C 12.7 °F /  -10.7 °C 29.80in /  1009hPa Calm     78% 0.00in /  0mm
01:19 17.8 °F /  -7.9 °C 12.1 °F /  -11.1 °C 29.80in /  1009hPa Calm     78% 0.00in /  0mm
01:24 17.5 °F /  -8.1 °C 12.1 °F /  -11.1 °C 29.80in /  1009hPa Calm     79% 0.00in /  0mm
01:29 17.2 °F /  -8.2 °C 11.5 °F /  -11.4 °C 29.80in /  1009hPa Calm     78% 0.00in /  0mm
01:34 16.9 °F /  -8.4 °C 11.5 °F /  -11.4 °C 29.80in /  1009hPa Calm     79% 0.00in /  0mm
01:39 16.5 °F /  -8.6 °C 11.1 °F /  -11.6 °C 29.80in /  1009hPa Calm     79% 0.00in /  0mm
01:44 16.1 °F /  -8.8 °C 10.7 °F /  -11.8 °C 29.80in /  1009hPa Calm     79% 0.00in /  0mm
01:49 15.8 °F /  -9 °C 10.2 °F /  -12.1 °C 29.80in /  1009hPa Calm     78% 0.00in /  0mm
01:54 15.4 °F /  -9.2 °C 10.1 °F /  -12.2 °C 29.80in /  1009hPa Calm     79% 0.00in /  0mm
01:59 15.1 °F /  -9.4 °C 10.0 °F /  -12.2 °C 29.80in /  1009hPa Calm     80% 0.00in /  0mm
02:04 14.8 °F /  -9.6 °C 9.7 °F /  -12.4 °C 29.80in /  1009hPa Calm     80% 0.00in /  0mm
02:09 14.6 °F /  -9.7 °C 9.6 °F /  -12.4 °C 29.80in /  1009hPa Calm     80% 0.00in /  0mm
02:14 14.3 °F /  -9.8 °C 9.3 °F /  -12.6 °C 29.80in /  1009hPa Calm     80% 0.00in /  0mm
02:19 14.1 °F /  -9.9 °C 9.1 °F /  -12.7 °C 29.80in /  1009hPa Calm     80% 0.00in /  0mm
02:24 13.8 °F /  -10.1 °C 9.0 °F /  -12.8 °C 29.80in /  1009hPa Calm     81% 0.00in /  0mm
02:29 13.6 °F /  -10.2 °C 8.9 °F /  -12.8 °C 29.80in /  1009hPa Calm     81% 0.00in /  0mm
02:34 13.4 °F /  -10.3 °C 8.7 °F /  -12.9 °C 29.81in /  1009.4hPa Calm     81% 0.00in /  0mm
02:39 13.1 °F /  -10.5 °C 8.4 °F /  -13.1 °C 29.81in /  1009.4hPa Calm     81% 0.00in /  0mm
02:44 12.9 °F /  -10.6 °C 8.2 °F /  -13.2 °C 29.81in /  1009.4hPa Calm     81% 0.00in /  0mm
02:49 12.7 °F /  -10.7 °C 8.0 °F /  -13.3 °C 29.81in /  1009.4hPa Calm     81% 0.00in /  0mm
02:59 12.3 °F /  -10.9 °C 7.9 °F /  -13.4 °C 29.81in /  1009.4hPa Calm     82% 0.00in /  0mm
03:04 12.1 °F /  -11.1 °C 7.7 °F /  -13.5 °C 29.81in /  1009.4hPa Calm     82% 0.00in /  0mm
03:09 11.9 °F /  -11.2 °C 7.7 °F /  -13.5 °C 29.81in /  1009.4hPa Calm     83% 0.00in /  0mm
03:14 11.9 °F /  -11.2 °C 7.7 °F /  -13.5 °C 29.81in /  1009.4hPa Calm     83% 0.00in /  0mm
03:19 11.7 °F /  -11.3 °C 7.8 °F /  -13.4 °C 29.81in /  1009.4hPa Calm     84% 0.00in /  0mm
03:24 11.7 °F /  -11.3 °C 7.8 °F /  -13.4 °C 29.81in /  1009.4hPa Calm     84% 0.00in /  0mm
03:29 11.6 °F /  -11.3 °C 8.0 °F /  -13.3 °C 29.81in /  1009.4hPa Calm     85% 0.00in /  0mm
03:34 11.6 °F /  -11.3 °C 8.0 °F /  -13.3 °C 29.81in /  1009.4hPa Calm     85% 0.00in /  0mm
03:44 11.5 °F /  -11.4 °C 8.1 °F /  -13.3 °C 29.81in /  1009.4hPa Calm     86% 0.00in /  0mm
03:49 11.5 °F /  -11.4 °C 8.1 °F /  -13.3 °C 29.81in /  1009.4hPa Calm     86% 0.00in /  0mm
03:54 11.5 °F /  -11.4 °C 8.1 °F /  -13.3 °C 29.81in /  1009.4hPa Calm     86% 0.00in /  0mm
03:59 11.5 °F /  -11.4 °C 8.1 °F /  -13.3 °C 29.81in /  1009.4hPa Calm     86% 0.00in /  0mm
04:04 11.5 °F /  -11.4 °C 8.1 °F /  -13.3 °C 29.81in /  1009.4hPa Calm     86% 0.00in /  0mm
04:09 11.5 °F /  -11.4 °C 8.4 °F /  -13.1 °C 29.82in /  1009.7hPa Calm     87% 0.00in /  0mm
04:14 11.4 °F /  -11.4 °C 8.3 °F /  -13.2 °C 29.82in /  1009.7hPa Calm     87% 0.00in /  0mm
04:19 11.5 °F /  -11.4 °C 8.4 °F /  -13.1 °C 29.82in /  1009.7hPa Calm     87% 0.00in /  0mm
04:24 11.5 °F /  -11.4 °C 8.4 °F /  -13.1 °C 29.82in /  1009.7hPa Calm     87% 0.00in /  0mm
04:29 11.6 °F /  -11.3 °C 8.5 °F /  -13.1 °C 29.82in /  1009.7hPa Calm     87% 0.00in /  0mm
04:34 11.8 °F /  -11.2 °C 8.9 °F /  -12.8 °C 29.82in /  1009.7hPa Calm     88% 0.00in /  0mm
04:39 11.9 °F /  -11.2 °C 9.0 °F /  -12.8 °C 29.82in /  1009.7hPa Calm     88% 0.00in /  0mm
04:44 12.1 °F /  -11.1 °C 9.5 °F /  -12.5 °C 29.82in /  1009.7hPa Calm     89% 0.00in /  0mm
04:49 12.3 °F /  -10.9 °C 9.7 °F /  -12.4 °C 29.82in /  1009.7hPa Calm     89% 0.00in /  0mm
04:54 12.4 °F /  -10.9 °C 9.8 °F /  -12.3 °C 29.82in /  1009.7hPa Calm     89% 0.00in /  0mm
04:59 12.5 °F /  -10.8 °C 9.9 °F /  -12.3 °C 29.82in /  1009.7hPa Calm     89% 0.00in /  0mm
05:04 12.6 °F /  -10.8 °C 10.0 °F /  -12.2 °C 29.83in /  1010hPa Calm     89% 0.00in /  0mm
05:09 12.7 °F /  -10.7 °C 10.1 °F /  -12.2 °C 29.83in /  1010hPa Calm     89% 0.00in /  0mm
05:19 12.9 °F /  -10.6 °C 10.3 °F /  -12.1 °C 29.83in /  1010hPa Calm     89% 0.00in /  0mm
05:24 13.0 °F /  -10.6 °C 10.4 °F /  -12 °C 29.83in /  1010hPa Calm     89% 0.00in /  0mm
05:29 13.2 °F /  -10.4 °C 10.8 °F /  -11.8 °C 29.83in /  1010hPa Calm     90% 0.00in /  0mm
05:34 13.2 °F /  -10.4 °C 10.8 °F /  -11.8 °C 29.83in /  1010hPa Calm     90% 0.00in /  0mm
05:39 13.5 °F /  -10.3 °C 11.1 °F /  -11.6 °C 29.84in /  1010.4hPa Calm     90% 0.00in /  0mm
05:44 13.7 °F /  -10.2 °C 11.3 °F /  -11.5 °C 29.84in /  1010.4hPa Calm     90% 0.00in /  0mm
05:49 13.9 °F /  -10.1 °C 11.5 °F /  -11.4 °C 29.83in /  1010hPa Calm     90% 0.00in /  0mm
05:54 14.1 °F /  -9.9 °C 11.7 °F /  -11.3 °C 29.84in /  1010.4hPa Calm     90% 0.00in /  0mm
05:59 14.4 °F /  -9.8 °C 12.3 °F /  -10.9 °C 29.84in /  1010.4hPa Calm     91% 0.00in /  0mm
06:04 14.6 °F /  -9.7 °C 12.5 °F /  -10.8 °C 29.84in /  1010.4hPa Calm     91% 0.00in /  0mm
06:09 15.0 °F /  -9.4 °C 12.8 °F /  -10.7 °C 29.84in /  1010.4hPa Calm     91% 0.00in /  0mm
06:14 15.3 °F /  -9.3 °C 13.1 °F /  -10.5 °C 29.84in /  1010.4hPa Calm     91% 0.00in /  0mm
06:19 15.6 °F /  -9.1 °C 13.4 °F /  -10.3 °C 29.84in /  1010.4hPa Calm   2.0mph /  3.2km/h 91% 0.00in /  0mm
06:24 16.0 °F /  -8.9 °C 14.1 °F /  -9.9 °C 29.84in /  1010.4hPa Calm   2.0mph /  3.2km/h 92% 0.00in /  0mm
06:29 16.2 °F /  -8.8 °C 14.0 °F /  -10 °C 29.84in /  1010.4hPa Calm   2.0mph /  3.2km/h 91% 0.00in /  0mm
06:34 16.4 °F /  -8.7 °C 14.5 °F /  -9.7 °C 29.84in /  1010.4hPa Calm     92% 0.00in /  0mm
06:39 16.5 °F /  -8.6 °C 14.3 °F /  -9.8 °C 29.84in /  1010.4hPa Calm     91% 0.00in /  0mm
06:44 16.6 °F /  -8.6 °C 14.4 °F /  -9.8 °C 29.85in /  1010.7hPa Calm     91% 0.00in /  0mm
06:49 16.6 °F /  -8.6 °C 14.4 °F /  -9.8 °C 29.84in /  1010.4hPa Calm     91% 0.00in /  0mm
06:54 16.6 °F /  -8.6 °C 14.4 °F /  -9.8 °C 29.85in /  1010.7hPa Calm     91% 0.00in /  0mm
06:59 16.7 °F /  -8.5 °C 14.5 °F /  -9.7 °C 29.85in /  1010.7hPa Calm     91% 0.00in /  0mm
07:04 16.7 °F /  -8.5 °C 14.5 °F /  -9.7 °C 29.85in /  1010.7hPa Calm     91% 0.00in /  0mm
07:09 16.6 °F /  -8.6 °C 14.4 °F /  -9.8 °C 29.85in /  1010.7hPa Calm     91% 0.00in /  0mm
07:14 16.5 °F /  -8.6 °C 14.3 °F /  -9.8 °C 29.85in /  1010.7hPa Calm     91% 0.00in /  0mm
07:19 16.4 °F /  -8.7 °C 14.2 °F /  -9.9 °C 29.86in /  1011.1hPa Calm     91% 0.00in /  0mm
07:24 16.1 °F /  -8.8 °C 13.9 °F /  -10.1 °C 29.86in /  1011.1hPa Calm     91% 0.00in /  0mm
07:29 16.0 °F /  -8.9 °C 13.8 °F /  -10.1 °C 29.86in /  1011.1hPa Calm     91% 0.00in /  0mm
07:34 15.8 °F /  -9 °C 13.6 °F /  -10.2 °C 29.86in /  1011.1hPa Calm   2.0mph /  3.2km/h 91% 0.00in /  0mm
07:39 15.6 °F /  -9.1 °C 13.2 °F /  -10.4 °C 29.87in /  1011.4hPa Calm   2.0mph /  3.2km/h 90% 0.00in /  0mm
07:44 15.4 °F /  -9.2 °C 13.0 °F /  -10.6 °C 29.87in /  1011.4hPa NNW 1.0mph /  1.6km/h 3.0mph /  4.8km/h 90% 0.00in /  0mm
07:49 15.4 °F /  -9.2 °C 13.0 °F /  -10.6 °C 29.87in /  1011.4hPa NNW 2.0mph /  3.2km/h 2.0mph /  3.2km/h 90% 0.00in /  0mm
07:54 15.4 °F /  -9.2 °C 13.2 °F /  -10.4 °C 29.87in /  1011.4hPa NNW 1.0mph /  1.6km/h 2.0mph /  3.2km/h 91% 0.00in /  0mm
07:59 15.8 °F /  -9 °C 13.6 °F /  -10.2 °C 29.87in /  1011.4hPa NNW 1.0mph /  1.6km/h 4.0mph /  6.4km/h 91% 0.00in /  0mm
08:04 16.2 °F /  -8.8 °C 14.0 °F /  -10 °C 29.87in /  1011.4hPa NNW 2.0mph /  3.2km/h 5.0mph /  8km/h 91% 0.00in /  0mm
08:09 16.5 °F /  -8.6 °C 14.3 °F /  -9.8 °C 29.87in /  1011.4hPa North 2.0mph /  3.2km/h 5.0mph /  8km/h 91% 0.00in /  0mm
08:14 16.7 °F /  -8.5 °C 14.5 °F /  -9.7 °C 29.88in /  1011.7hPa North 1.0mph /  1.6km/h 3.0mph /  4.8km/h 91% 0.00in /  0mm
08:19 17.1 °F /  -8.3 °C 14.9 °F /  -9.5 °C 29.88in /  1011.7hPa NE 2.0mph /  3.2km/h 3.0mph /  4.8km/h 91% 0.00in /  0mm
08:24 17.5 °F /  -8.1 °C 15.3 °F /  -9.3 °C 29.88in /  1011.7hPa NE 1.0mph /  1.6km/h 3.0mph /  4.8km/h 91% 0.00in /  0mm
08:29 17.7 °F /  -7.9 °C 15.5 °F /  -9.2 °C 29.88in /  1011.7hPa NE 1.0mph /  1.6km/h 3.0mph /  4.8km/h 91% 0.00in /  0mm
08:39 18.0 °F /  -7.8 °C 15.8 °F /  -9 °C 29.89in /  1012.1hPa NE 1.0mph /  1.6km/h 2.0mph /  3.2km/h 91% 0.00in /  0mm
08:44 18.2 °F /  -7.7 °C 16.0 °F /  -8.9 °C 29.89in /  1012.1hPa NE 2.0mph /  3.2km/h 4.0mph /  6.4km/h 91% 0.00in /  0mm
08:49 18.5 °F /  -7.5 °C 16.1 °F /  -8.8 °C 29.89in /  1012.1hPa NE 2.0mph /  3.2km/h 3.0mph /  4.8km/h 90% 0.00in /  0mm
08:54 18.7 °F /  -7.4 °C 16.3 °F /  -8.7 °C 29.89in /  1012.1hPa NE 1.0mph /  1.6km/h 3.0mph /  4.8km/h 90% 0.00in /  0mm
08:59 19.0 °F /  -7.2 °C 16.3 °F /  -8.7 °C 29.89in /  1012.1hPa NE 3.0mph /  4.8km/h 4.0mph /  6.4km/h 89% 0.00in /  0mm
09:04 19.1 °F /  -7.2 °C 16.1 °F /  -8.8 °C 29.89in /  1012.1hPa NE 2.0mph /  3.2km/h 4.0mph /  6.4km/h 88% 0.00in /  0mm
09:14 18.9 °F /  -7.3 °C 15.4 °F /  -9.2 °C 29.90in /  1012.4hPa North 1.0mph /  1.6km/h 4.0mph /  6.4km/h 86% 0.00in /  0mm
09:19 19.2 °F /  -7.1 °C 15.7 °F /  -9.1 °C 29.90in /  1012.4hPa NNE 2.0mph /  3.2km/h 3.0mph /  4.8km/h 86% 0.00in /  0mm
09:24 19.3 °F /  -7.1 °C 15.5 °F /  -9.2 °C 29.90in /  1012.4hPa NNE 1.0mph /  1.6km/h 4.0mph /  6.4km/h 85% 0.00in /  0mm
09:29 19.2 °F /  -7.1 °C 15.2 °F /  -9.3 °C 29.90in /  1012.4hPa NNW 4.0mph /  6.4km/h 4.0mph /  6.4km/h 84% 0.00in /  0mm
09:34 19.3 °F /  -7.1 °C 15.3 °F /  -9.3 °C 29.91in /  1012.8hPa NE 1.0mph /  1.6km/h 4.0mph /  6.4km/h 84% 0.00in /  0mm
09:39 19.3 °F /  -7.1 °C 15.3 °F /  -9.3 °C 29.91in /  1012.8hPa NNE 2.0mph /  3.2km/h 4.0mph /  6.4km/h 84% 0.00in /  0mm
09:44 19.9 °F /  -6.7 °C 15.6 °F /  -9.1 °C 29.91in /  1012.8hPa NE 2.0mph /  3.2km/h 4.0mph /  6.4km/h 83% 0.00in /  0mm
09:49 20.1 °F /  -6.6 °C 15.5 °F /  -9.2 °C 29.91in /  1012.8hPa NNE 2.0mph /  3.2km/h 6.0mph /  9.7km/h 82% 0.00in /  0mm
09:59 20.8 °F /  -6.2 °C 15.6 °F /  -9.1 °C 29.92in /  1013.1hPa NNE 2.0mph /  3.2km/h 7.0mph /  11.3km/h 80% 0.00in /  0mm
10:04 20.6 °F /  -6.3 °C 15.1 °F /  -9.4 °C 29.92in /  1013.1hPa North 5.0mph /  8km/h 6.0mph /  9.7km/h 79% 0.00in /  0mm
10:09 20.3 °F /  -6.5 °C 15.1 °F /  -9.4 °C 29.92in /  1013.1hPa North 3.0mph /  4.8km/h 6.0mph /  9.7km/h 80% 0.00in /  0mm
10:14 19.9 °F /  -6.7 °C 14.7 °F /  -9.6 °C 29.92in /  1013.1hPa North 3.0mph /  4.8km/h 5.0mph /  8km/h 80% 0.00in /  0mm
10:24 20.7 °F /  -6.3 °C 15.5 °F /  -9.2 °C 29.93in /  1013.4hPa North 2.0mph /  3.2km/h 5.0mph /  8km/h 80% 0.00in /  0mm
10:29 20.4 °F /  -6.4 °C 14.9 °F /  -9.5 °C 29.93in /  1013.4hPa NNW 7.0mph /  11.3km/h 7.0mph /  11.3km/h 79% 0.00in /  0mm
10:34 20.3 °F /  -6.5 °C 14.8 °F /  -9.6 °C 29.93in /  1013.4hPa NNW 3.0mph /  4.8km/h 7.0mph /  11.3km/h 79% 0.00in /  0mm
10:40 20.6 °F /  -6.3 °C 15.1 °F /  -9.4 °C 29.93in /  1013.4hPa NNW 3.0mph /  4.8km/h 7.0mph /  11.3km/h 79% 0.00in /  0mm
10:49 20.9 °F /  -6.2 °C 15.1 °F /  -9.4 °C 29.93in /  1013.4hPa North 3.0mph /  4.8km/h 5.0mph /  8km/h 78% 0.00in /  0mm
10:54 20.3 °F /  -6.5 °C 14.8 °F /  -9.6 °C 29.93in /  1013.4hPa North 3.0mph /  4.8km/h 7.0mph /  11.3km/h 79% 0.00in /  0mm
10:59 20.9 °F /  -6.2 °C 15.1 °F /  -9.4 °C 29.93in /  1013.4hPa North 1.0mph /  1.6km/h 6.0mph /  9.7km/h 78% 0.00in /  0mm
11:04 20.9 °F /  -6.2 °C 14.8 °F /  -9.6 °C 29.93in /  1013.4hPa Calm   5.0mph /  8km/h 77% 0.00in /  0mm
11:14 21.7 °F /  -5.7 °C 15.3 °F /  -9.3 °C 29.93in /  1013.4hPa North 3.0mph /  4.8km/h 7.0mph /  11.3km/h 76% 0.00in /  0mm
11:19 20.9 °F /  -6.2 °C 14.5 °F /  -9.7 °C 29.93in /  1013.4hPa NNW 3.0mph /  4.8km/h 7.0mph /  11.3km/h 76% 0.00in /  0mm
11:29 20.4 °F /  -6.4 °C 14.0 °F /  -10 °C 29.93in /  1013.4hPa North 3.0mph /  4.8km/h 5.0mph /  8km/h 76% 0.00in /  0mm
11:39 21.3 °F /  -5.9 °C 14.3 °F /  -9.8 °C 29.93in /  1013.4hPa WNW 3.0mph /  4.8km/h 6.0mph /  9.7km/h 74% 0.00in /  0mm
11:44 21.1 °F /  -6.1 °C 14.1 °F /  -9.9 °C 29.93in /  1013.4hPa West 2.0mph /  3.2km/h 6.0mph /  9.7km/h 74% 0.00in /  0mm
11:49 21.3 °F /  -5.9 °C 14.6 °F /  -9.7 °C 29.93in /  1013.4hPa WNW 2.0mph /  3.2km/h 6.0mph /  9.7km/h 75% 0.00in /  0mm
11:59 22.0 °F /  -5.6 °C 14.7 °F /  -9.6 °C 29.93in /  1013.4hPa NNW 2.0mph /  3.2km/h 5.0mph /  8km/h 73% 0.00in /  0mm
12:24 22.5 °F /  -5.3 °C 14.2 °F /  -9.9 °C 29.93in /  1013.4hPa NNW 3.0mph /  4.8km/h 6.0mph /  9.7km/h 70% 0.00in /  0mm
12:29 22.8 °F /  -5.1 °C 14.5 °F /  -9.7 °C 29.92in /  1013.1hPa NNW 3.0mph /  4.8km/h 6.0mph /  9.7km/h 70% 0.00in /  0mm
12:39 22.5 °F /  -5.3 °C 15.5 °F /  -9.2 °C 29.92in /  1013.1hPa NW 4.0mph /  6.4km/h 7.0mph /  11.3km/h 74% 0.00in /  0mm
12:44 22.2 °F /  -5.4 °C 14.5 °F /  -9.7 °C 29.92in /  1013.1hPa NNW 4.0mph /  6.4km/h 8.0mph /  12.9km/h 72% 0.00in /  0mm
12:49 22.2 °F /  -5.4 °C 14.5 °F /  -9.7 °C 29.92in /  1013.1hPa NNW 3.0mph /  4.8km/h 8.0mph /  12.9km/h 72% 0.00in /  0mm
12:54 22.5 °F /  -5.3 °C 14.8 °F /  -9.6 °C 29.92in /  1013.1hPa NW 3.0mph /  4.8km/h 7.0mph /  11.3km/h 72% 0.00in /  0mm
13:09 23.0 °F /  -5 °C 15.3 °F /  -9.3 °C 29.92in /  1013.1hPa NW 2.0mph /  3.2km/h 5.0mph /  8km/h 72% 0.00in /  0mm
13:14 22.8 °F /  -5.1 °C 15.1 °F /  -9.4 °C 29.92in /  1013.1hPa NW 3.0mph /  4.8km/h 9.0mph /  14.5km/h 72% 0.00in /  0mm
13:19 22.4 °F /  -5.3 °C 15.4 °F /  -9.2 °C 29.92in /  1013.1hPa NW 4.0mph /  6.4km/h 9.0mph /  14.5km/h 74% 0.00in /  0mm
13:24 22.5 °F /  -5.3 °C 15.1 °F /  -9.4 °C 29.92in /  1013.1hPa NW 3.0mph /  4.8km/h 7.0mph /  11.3km/h 73% 0.00in /  0mm
13:29 22.0 °F /  -5.6 °C 14.7 °F /  -9.6 °C 29.92in /  1013.1hPa NNW 3.0mph /  4.8km/h 7.0mph /  11.3km/h 73% 0.00in /  0mm
13:34 22.4 °F /  -5.3 °C 15.1 °F /  -9.4 °C 29.92in /  1013.1hPa NNW 2.0mph /  3.2km/h 6.0mph /  9.7km/h 73% 0.00in /  0mm
13:39 22.6 °F /  -5.2 °C 15.2 °F /  -9.3 °C 29.92in /  1013.1hPa WNW 3.0mph /  4.8km/h 7.0mph /  11.3km/h 73% 0.00in /  0mm
13:44 22.5 °F /  -5.3 °C 15.1 °F /  -9.4 °C 29.92in /  1013.1hPa West 2.0mph /  3.2km/h 7.0mph /  11.3km/h 73% 0.00in /  0mm
13:49 22.5 °F /  -5.3 °C 14.2 °F /  -9.9 °C 29.92in /  1013.1hPa NW 3.0mph /  4.8km/h 6.0mph /  9.7km/h 70% 0.00in /  0mm
13:54 22.4 °F /  -5.3 °C 14.1 °F /  -9.9 °C 29.92in /  1013.1hPa NW 2.0mph /  3.2km/h 7.0mph /  11.3km/h 70% 0.00in /  0mm
13:59 22.9 °F /  -5.1 °C 14.2 °F /  -9.9 °C 29.92in /  1013.1hPa West 1.0mph /  1.6km/h 6.0mph /  9.7km/h 69% 0.00in /  0mm
14:04 23.5 °F /  -4.7 °C 15.1 °F /  -9.4 °C 29.92in /  1013.1hPa NNW 3.0mph /  4.8km/h 5.0mph /  8km/h 70% 0.00in /  0mm
14:09 24.2 °F /  -4.3 °C 15.5 °F /  -9.2 °C 29.92in /  1013.1hPa North 4.0mph /  6.4km/h 6.0mph /  9.7km/h 69% 0.00in /  0mm
14:14 24.0 °F /  -4.4 °C 15.0 °F /  -9.4 °C 29.92in /  1013.1hPa NNW 3.0mph /  4.8km/h 6.0mph /  9.7km/h 68% 0.00in /  0mm
14:19 23.9 °F /  -4.5 °C 15.2 °F /  -9.3 °C 29.92in /  1013.1hPa North 2.0mph /  3.2km/h 5.0mph /  8km/h 69% 0.03in /  0.76mm
14:24 23.7 °F /  -4.6 °C 15.0 °F /  -9.4 °C 29.92in /  1013.1hPa North 3.0mph /  4.8km/h 7.0mph /  11.3km/h 69% 0.04in /  1.02mm
14:29 23.2 °F /  -4.9 °C 14.9 °F /  -9.5 °C 29.92in /  1013.1hPa NNW 3.0mph /  4.8km/h 7.0mph /  11.3km/h 70% 0.04in /  1.02mm
14:39 22.7 °F /  -5.2 °C 14.4 °F /  -9.8 °C 29.92in /  1013.1hPa NW 2.0mph /  3.2km/h 5.0mph /  8km/h 70% 0.05in /  1.27mm
14:44 22.9 °F /  -5.1 °C 14.2 °F /  -9.9 °C 29.92in /  1013.1hPa WNW 3.0mph /  4.8km/h 7.0mph /  11.3km/h 69% 0.05in /  1.27mm
14:49 23.2 °F /  -4.9 °C 14.5 °F /  -9.7 °C 29.93in /  1013.4hPa West 4.0mph /  6.4km/h 7.0mph /  11.3km/h 69% 0.05in /  1.27mm
14:54 23.3 °F /  -4.8 °C 14.0 °F /  -10 °C 29.93in /  1013.4hPa WNW 3.0mph /  4.8km/h 7.0mph /  11.3km/h 67% 0.05in /  1.27mm
14:59 23.2 °F /  -4.9 °C 13.9 °F /  -10.1 °C 29.93in /  1013.4hPa WNW 5.0mph /  8km/h 7.0mph /  11.3km/h 67% 0.05in /  1.27mm
15:04 22.9 °F /  -5.1 °C 13.2 °F /  -10.4 °C 29.93in /  1013.4hPa West 4.0mph /  6.4km/h 10.0mph /  16.1km/h 66% 0.05in /  1.27mm
15:09 22.7 °F /  -5.2 °C 13.4 °F /  -10.3 °C 29.93in /  1013.4hPa West 6.0mph /  9.7km/h 10.0mph /  16.1km/h 67% 0.05in /  1.27mm
15:14 23.0 °F /  -5 °C 13.7 °F /  -10.2 °C 29.93in /  1013.4hPa West 4.0mph /  6.4km/h 10.0mph /  16.1km/h 67% 0.05in /  1.27mm
15:19 23.4 °F /  -4.8 °C 13.7 °F /  -10.2 °C 29.93in /  1013.4hPa West 4.0mph /  6.4km/h 10.0mph /  16.1km/h 66% 0.02in /  0.51mm
15:24 23.6 °F /  -4.7 °C 13.9 °F /  -10.1 °C 29.93in /  1013.4hPa West 4.0mph /  6.4km/h 10.0mph /  16.1km/h 66% 0.01in /  0.25mm
15:34 24.0 °F /  -4.4 °C 13.9 °F /  -10.1 °C 29.94in /  1013.8hPa WNW 4.0mph /  6.4km/h 8.0mph /  12.9km/h 65% 0.01in /  0.25mm
15:39 23.4 °F /  -4.8 °C 14.0 °F /  -10 °C 29.93in /  1013.4hPa WNW 4.0mph /  6.4km/h 8.0mph /  12.9km/h 67% 0.01in /  0.25mm
15:44 23.7 °F /  -4.6 °C 14.3 °F /  -9.8 °C 29.93in /  1013.4hPa WNW 3.0mph /  4.8km/h 5.0mph /  8km/h 67% 0.01in /  0.25mm
15:49 23.4 °F /  -4.8 °C 13.4 °F /  -10.3 °C 29.93in /  1013.4hPa West 2.0mph /  3.2km/h 7.0mph /  11.3km/h 65% 0.01in /  0.25mm
15:54 23.4 °F /  -4.8 °C 13.4 °F /  -10.3 °C 29.94in /  1013.8hPa NW 2.0mph /  3.2km/h 5.0mph /  8km/h 65% 0.02in /  0.51mm
15:59 23.9 °F /  -4.5 °C 13.5 °F /  -10.3 °C 29.94in /  1013.8hPa West 3.0mph /  4.8km/h 6.0mph /  9.7km/h 64% 0.02in /  0.51mm
16:04 23.8 °F /  -4.6 °C 13.0 °F /  -10.6 °C 29.94in /  1013.8hPa West 3.0mph /  4.8km/h 8.0mph /  12.9km/h 63% 0.02in /  0.51mm
16:09 24.0 °F /  -4.4 °C 11.7 °F /  -11.3 °C 29.94in /  1013.8hPa WNW 9.0mph /  14.5km/h 12.0mph /  19.3km/h 59% 0.02in /  0.51mm
16:14 23.7 °F /  -4.6 °C 11.4 °F /  -11.4 °C 29.94in /  1013.8hPa West 4.0mph /  6.4km/h 9.0mph /  14.5km/h 59% 0.02in /  0.51mm
16:19 23.7 °F /  -4.6 °C 11.4 °F /  -11.4 °C 29.94in /  1013.8hPa West 5.0mph /  8km/h 10.0mph /  16.1km/h 59% 0.02in /  0.51mm
16:24 23.4 °F /  -4.8 °C 11.5 °F /  -11.4 °C 29.94in /  1013.8hPa West 5.0mph /  8km/h 11.0mph /  17.7km/h 60% 0.02in /  0.51mm
16:29 23.5 °F /  -4.7 °C 11.6 °F /  -11.3 °C 29.94in /  1013.8hPa West 4.0mph /  6.4km/h 11.0mph /  17.7km/h 60% 0.01in /  0.25mm
16:34 23.4 °F /  -4.8 °C 11.9 °F /  -11.2 °C 29.94in /  1013.8hPa West 4.0mph /  6.4km/h 9.0mph /  14.5km/h 61% 0.01in /  0.25mm
16:39 23.2 °F /  -4.9 °C 12.1 °F /  -11.1 °C 29.94in /  1013.8hPa West 4.0mph /  6.4km/h 9.0mph /  14.5km/h 62% 0.01in /  0.25mm
16:44 22.9 °F /  -5.1 °C 12.2 °F /  -11 °C 29.94in /  1013.8hPa West 5.0mph /  8km/h 9.0mph /  14.5km/h 63% 0.01in /  0.25mm
16:49 22.6 °F /  -5.2 °C 12.9 °F /  -10.6 °C 29.95in /  1014.1hPa West 3.0mph /  4.8km/h 8.0mph /  12.9km/h 66% 0.01in /  0.25mm
16:54 22.4 °F /  -5.3 °C 13.1 °F /  -10.5 °C 29.95in /  1014.1hPa WNW 2.0mph /  3.2km/h 7.0mph /  11.3km/h 67% 0.00in /  0mm
16:59 22.5 °F /  -5.3 °C 12.5 °F /  -10.8 °C 29.95in /  1014.1hPa West 1.0mph /  1.6km/h 5.0mph /  8km/h 65% 0.00in /  0mm
17:04 22.6 °F /  -5.2 °C 11.5 °F /  -11.4 °C 29.95in /  1014.1hPa West 4.0mph /  6.4km/h 11.0mph /  17.7km/h 62% 0.00in /  0mm
17:09 22.4 °F /  -5.3 °C 11.3 °F /  -11.5 °C 29.95in /  1014.1hPa WNW 3.0mph /  4.8km/h 7.0mph /  11.3km/h 62% 0.00in /  0mm
17:14 22.2 °F /  -5.4 °C 11.1 °F /  -11.6 °C 29.95in /  1014.1hPa West 2.0mph /  3.2km/h 7.0mph /  11.3km/h 62% 0.00in /  0mm
17:19 21.9 °F /  -5.6 °C 10.9 °F /  -11.7 °C 29.95in /  1014.1hPa WNW 3.0mph /  4.8km/h 6.0mph /  9.7km/h 62% 0.00in /  0mm
17:24 21.7 °F /  -5.7 °C 11.0 °F /  -11.7 °C 29.95in /  1014.1hPa West 3.0mph /  4.8km/h 6.0mph /  9.7km/h 63% 0.00in /  0mm
17:29 21.7 °F /  -5.7 °C 11.0 °F /  -11.7 °C 29.95in /  1014.1hPa WSW 3.0mph /  4.8km/h 7.0mph /  11.3km/h 63% 0.00in /  0mm
17:34 21.7 °F /  -5.7 °C 11.0 °F /  -11.7 °C 29.96in /  1014.4hPa WSW 3.0mph /  4.8km/h 9.0mph /  14.5km/h 63% 0.00in /  0mm
17:39 21.6 °F /  -5.8 °C 11.3 °F /  -11.5 °C 29.96in /  1014.4hPa West 3.0mph /  4.8km/h 9.0mph /  14.5km/h 64% 0.00in /  0mm
17:44 21.5 °F /  -5.8 °C 11.2 °F /  -11.6 °C 29.96in /  1014.4hPa West 3.0mph /  4.8km/h 5.0mph /  8km/h 64% 0.00in /  0mm
17:49 21.3 °F /  -5.9 °C 11.4 °F /  -11.4 °C 29.96in /  1014.4hPa West 4.0mph /  6.4km/h 5.0mph /  8km/h 65% 0.00in /  0mm
17:54 21.2 °F /  -6 °C 11.6 °F /  -11.3 °C 29.96in /  1014.4hPa West 2.0mph /  3.2km/h 5.0mph /  8km/h 66% 0.00in /  0mm
17:59 20.9 °F /  -6.2 °C 11.7 °F /  -11.3 °C 29.96in /  1014.4hPa West 2.0mph /  3.2km/h 5.0mph /  8km/h 67% 0.00in /  0mm
18:04 20.9 °F /  -6.2 °C 11.7 °F /  -11.3 °C 29.97in /  1014.8hPa Calm   5.0mph /  8km/h 67% 0.00in /  0mm
18:09 20.9 °F /  -6.2 °C 12.0 °F /  -11.1 °C 29.97in /  1014.8hPa West 2.0mph /  3.2km/h 6.0mph /  9.7km/h 68% 0.00in /  0mm
18:14 21.3 °F /  -5.9 °C 12.4 °F /  -10.9 °C 29.97in /  1014.8hPa WNW 2.0mph /  3.2km/h 6.0mph /  9.7km/h 68% 0.00in /  0mm
18:19 21.3 °F /  -5.9 °C 12.4 °F /  -10.9 °C 29.97in /  1014.8hPa WNW 2.0mph /  3.2km/h 7.0mph /  11.3km/h 68% 0.00in /  0mm
18:24 21.0 °F /  -6.1 °C 12.1 °F /  -11.1 °C 29.97in /  1014.8hPa West 3.0mph /  4.8km/h 7.0mph /  11.3km/h 68% 0.00in /  0mm
18:29 21.1 °F /  -6.1 °C 12.2 °F /  -11 °C 29.97in /  1014.8hPa West 3.0mph /  4.8km/h 7.0mph /  11.3km/h 68% 0.00in /  0mm
18:34 21.2 °F /  -6 °C 12.3 °F /  -10.9 °C 29.97in /  1014.8hPa West 3.0mph /  4.8km/h 7.0mph /  11.3km/h 68% 0.00in /  0mm
18:39 21.2 °F /  -6 °C 12.6 °F /  -10.8 °C 29.98in /  1015.1hPa West 3.0mph /  4.8km/h 6.0mph /  9.7km/h 69% 0.00in /  0mm
18:44 21.1 °F /  -6.1 °C 12.5 °F /  -10.8 °C 29.98in /  1015.1hPa WNW 4.0mph /  6.4km/h 6.0mph /  9.7km/h 69% 0.00in /  0mm
18:49 21.0 °F /  -6.1 °C 12.7 °F /  -10.7 °C 29.98in /  1015.1hPa NW 4.0mph /  6.4km/h 7.0mph /  11.3km/h 70% 0.00in /  0mm
18:54 20.9 °F /  -6.2 °C 12.6 °F /  -10.8 °C 29.98in /  1015.1hPa West 4.0mph /  6.4km/h 8.0mph /  12.9km/h 70% 0.00in /  0mm
18:59 21.0 °F /  -6.1 °C 12.7 °F /  -10.7 °C 29.98in /  1015.1hPa WNW 4.0mph /  6.4km/h 8.0mph /  12.9km/h 70% 0.00in /  0mm
19:04 21.2 °F /  -6 °C 12.9 °F /  -10.6 °C 29.98in /  1015.1hPa WNW 3.0mph /  4.8km/h 7.0mph /  11.3km/h 70% 0.00in /  0mm
19:09 21.4 °F /  -5.9 °C 13.1 °F /  -10.5 °C 29.98in /  1015.1hPa WNW 3.0mph /  4.8km/h 6.0mph /  9.7km/h 70% 0.00in /  0mm
19:14 21.6 °F /  -5.8 °C 13.3 °F /  -10.4 °C 29.98in /  1015.1hPa WNW 3.0mph /  4.8km/h 7.0mph /  11.3km/h 70% 0.00in /  0mm
19:19 21.8 °F /  -5.7 °C 13.5 °F /  -10.3 °C 29.98in /  1015.1hPa West 2.0mph /  3.2km/h 4.0mph /  6.4km/h 70% 0.00in /  0mm
19:24 21.8 °F /  -5.7 °C 13.5 °F /  -10.3 °C 29.98in /  1015.1hPa West 3.0mph /  4.8km/h 5.0mph /  8km/h 70% 0.00in /  0mm
19:29 21.9 °F /  -5.6 °C 13.6 °F /  -10.2 °C 29.98in /  1015.1hPa WNW 3.0mph /  4.8km/h 6.0mph /  9.7km/h 70% 0.00in /  0mm
19:34 22.0 °F /  -5.6 °C 13.4 °F /  -10.3 °C 29.98in /  1015.1hPa WNW 3.0mph /  4.8km/h 6.0mph /  9.7km/h 69% 0.00in /  0mm
19:39 21.9 °F /  -5.6 °C 13.3 °F /  -10.4 °C 29.98in /  1015.1hPa WNW 3.0mph /  4.8km/h 7.0mph /  11.3km/h 69% 0.00in /  0mm
19:44 21.8 °F /  -5.7 °C 13.5 °F /  -10.3 °C 29.97in /  1014.8hPa WNW 3.0mph /  4.8km/h 7.0mph /  11.3km/h 70% 0.00in /  0mm
19:49 21.9 °F /  -5.6 °C 13.3 °F /  -10.4 °C 29.97in /  1014.8hPa WNW 3.0mph /  4.8km/h 6.0mph /  9.7km/h 69% 0.00in /  0mm
19:54 22.0 °F /  -5.6 °C 13.4 °F /  -10.3 °C 29.97in /  1014.8hPa West 3.0mph /  4.8km/h 7.0mph /  11.3km/h 69% 0.00in /  0mm
19:59 22.0 °F /  -5.6 °C 12.7 °F /  -10.7 °C 29.97in /  1014.8hPa NW 5.0mph /  8km/h 10.0mph /  16.1km/h 67% 0.00in /  0mm
20:04 21.9 °F /  -5.6 °C 13.0 °F /  -10.6 °C 29.97in /  1014.8hPa WSW 5.0mph /  8km/h 9.0mph /  14.5km/h 68% 0.00in /  0mm
20:09 21.8 °F /  -5.7 °C 13.2 °F /  -10.4 °C 29.97in /  1014.8hPa West 4.0mph /  6.4km/h 9.0mph /  14.5km/h 69% 0.00in /  0mm
20:14 21.6 °F /  -5.8 °C 12.7 °F /  -10.7 °C 29.97in /  1014.8hPa West 5.0mph /  8km/h 8.0mph /  12.9km/h 68% 0.00in /  0mm
20:19 21.7 °F /  -5.7 °C 12.8 °F /  -10.7 °C 29.97in /  1014.8hPa West 2.0mph /  3.2km/h 5.0mph /  8km/h 68% 0.00in /  0mm
20:24 21.6 °F /  -5.8 °C 12.3 °F /  -10.9 °C 29.96in /  1014.4hPa WSW 4.0mph /  6.4km/h 5.0mph /  8km/h 67% 0.00in /  0mm
20:29 21.7 °F /  -5.7 °C 12.4 °F /  -10.9 °C 29.96in /  1014.4hPa West 3.0mph /  4.8km/h 5.0mph /  8km/h 67% 0.00in /  0mm
20:34 21.7 °F /  -5.7 °C 12.1 °F /  -11.1 °C 29.96in /  1014.4hPa West 2.0mph /  3.2km/h 5.0mph /  8km/h 66% 0.00in /  0mm
20:39 21.7 °F /  -5.7 °C 12.4 °F /  -10.9 °C 29.96in /  1014.4hPa West 2.0mph /  3.2km/h 5.0mph /  8km/h 67% 0.00in /  0mm
20:44 21.6 °F /  -5.8 °C 12.3 °F /  -10.9 °C 29.95in /  1014.1hPa West 2.0mph /  3.2km/h 5.0mph /  8km/h 67% 0.00in /  0mm
20:49 21.5 °F /  -5.8 °C 12.6 °F /  -10.8 °C 29.95in /  1014.1hPa West 1.0mph /  1.6km/h 3.0mph /  4.8km/h 68% 0.00in /  0mm
20:54 21.5 °F /  -5.8 °C 12.2 °F /  -11 °C 29.95in /  1014.1hPa West 2.0mph /  3.2km/h 4.0mph /  6.4km/h 67% 0.00in /  0mm
20:59 21.5 °F /  -5.8 °C 12.2 °F /  -11 °C 29.95in /  1014.1hPa WNW 2.0mph /  3.2km/h 5.0mph /  8km/h 67% 0.00in /  0mm
21:04 21.4 °F /  -5.9 °C 11.8 °F /  -11.2 °C 29.95in /  1014.1hPa West 2.0mph /  3.2km/h 6.0mph /  9.7km/h 66% 0.00in /  0mm
21:09 21.5 °F /  -5.8 °C 12.2 °F /  -11 °C 29.95in /  1014.1hPa West 3.0mph /  4.8km/h 7.0mph /  11.3km/h 67% 0.00in /  0mm
21:14 21.5 °F /  -5.8 °C 12.2 °F /  -11 °C 29.95in /  1014.1hPa West 2.0mph /  3.2km/h 7.0mph /  11.3km/h 67% 0.00in /  0mm
21:19 21.5 °F /  -5.8 °C 12.6 °F /  -10.8 °C 29.95in /  1014.1hPa NW 3.0mph /  4.8km/h 4.0mph /  6.4km/h 68% 0.00in /  0mm
21:24 21.5 °F /  -5.8 °C 12.9 °F /  -10.6 °C 29.94in /  1013.8hPa WSW 3.0mph /  4.8km/h 8.0mph /  12.9km/h 69% 0.00in /  0mm
21:29 21.3 °F /  -5.9 °C 13.0 °F /  -10.6 °C 29.94in /  1013.8hPa West 4.0mph /  6.4km/h 4.0mph /  6.4km/h 70% 0.00in /  0mm
21:34 21.2 °F /  -6 °C 13.3 °F /  -10.4 °C 29.94in /  1013.8hPa WNW 1.0mph /  1.6km/h 5.0mph /  8km/h 71% 0.00in /  0mm
21:39 21.0 °F /  -6.1 °C 13.4 °F /  -10.3 °C 29.94in /  1013.8hPa WNW 2.0mph /  3.2km/h 5.0mph /  8km/h 72% 0.00in /  0mm
21:44 20.9 °F /  -6.2 °C 13.6 °F /  -10.2 °C 29.94in /  1013.8hPa WNW 1.0mph /  1.6km/h 4.0mph /  6.4km/h 73% 0.00in /  0mm
21:49 20.9 °F /  -6.2 °C 13.6 °F /  -10.2 °C 29.94in /  1013.8hPa West 1.0mph /  1.6km/h 5.0mph /  8km/h 73% 0.00in /  0mm
21:54 20.8 °F /  -6.2 °C 13.5 °F /  -10.3 °C 29.94in /  1013.8hPa Calm   1.0mph /  1.6km/h 73% 0.00in /  0mm
21:59 20.8 °F /  -6.2 °C 13.5 °F /  -10.3 °C 29.94in /  1013.8hPa Calm   2.0mph /  3.2km/h 73% 0.00in /  0mm
22:04 20.8 °F /  -6.2 °C 13.5 °F /  -10.3 °C 29.94in /  1013.8hPa Calm   3.0mph /  4.8km/h 73% 0.00in /  0mm
22:09 20.9 °F /  -6.2 °C 13.3 °F /  -10.4 °C 29.94in /  1013.8hPa Calm   1.0mph /  1.6km/h 72% 0.00in /  0mm
22:14 20.8 °F /  -6.2 °C 13.5 °F /  -10.3 °C 29.94in /  1013.8hPa Calm   1.0mph /  1.6km/h 73% 0.00in /  0mm
22:19 20.6 °F /  -6.3 °C 13.3 °F /  -10.4 °C 29.94in /  1013.8hPa Calm   1.0mph /  1.6km/h 73% 0.00in /  0mm
22:24 20.4 °F /  -6.4 °C 13.4 °F /  -10.3 °C 29.94in /  1013.8hPa Calm     74% 0.00in /  0mm
22:29 20.3 °F /  -6.5 °C 13.3 °F /  -10.4 °C 29.94in /  1013.8hPa SW 1.0mph /  1.6km/h 3.0mph /  4.8km/h 74% 0.00in /  0mm
22:34 20.5 °F /  -6.4 °C 13.5 °F /  -10.3 °C 29.95in /  1014.1hPa SSW 1.0mph /  1.6km/h 3.0mph /  4.8km/h 74% 0.00in /  0mm
22:39 20.7 °F /  -6.3 °C 13.7 °F /  -10.2 °C 29.94in /  1013.8hPa South 5.0mph /  8km/h 8.0mph /  12.9km/h 74% 0.00in /  0mm
22:44 20.7 °F /  -6.3 °C 14.6 °F /  -9.7 °C 29.95in /  1014.1hPa SSE 4.0mph /  6.4km/h 8.0mph /  12.9km/h 77% 0.00in /  0mm
22:49 20.6 °F /  -6.3 °C 14.8 °F /  -9.6 °C 29.95in /  1014.1hPa SSE 3.0mph /  4.8km/h 8.0mph /  12.9km/h 78% 0.00in /  0mm
22:54 20.5 °F /  -6.4 °C 15.0 °F /  -9.4 °C 29.95in /  1014.1hPa SSE 2.0mph /  3.2km/h 6.0mph /  9.7km/h 79% 0.00in /  0mm
22:59 20.5 °F /  -6.4 °C 15.3 °F /  -9.3 °C 29.95in /  1014.1hPa SSE 3.0mph /  4.8km/h 4.0mph /  6.4km/h 80% 0.00in /  0mm
23:04 20.5 °F /  -6.4 °C 15.3 °F /  -9.3 °C 29.95in /  1014.1hPa Calm   3.0mph /  4.8km/h 80% 0.00in /  0mm
23:09 20.5 °F /  -6.4 °C 15.3 °F /  -9.3 °C 29.95in /  1014.1hPa Calm   3.0mph /  4.8km/h 80% 0.00in /  0mm
23:14 20.6 °F /  -6.3 °C 15.4 °F /  -9.2 °C 29.95in /  1014.1hPa SSE 2.0mph /  3.2km/h 3.0mph /  4.8km/h 80% 0.00in /  0mm
23:19 20.6 °F /  -6.3 °C 15.4 °F /  -9.2 °C 29.96in /  1014.4hPa SSE 2.0mph /  3.2km/h 3.0mph /  4.8km/h 80% 0.00in /  0mm
23:24 20.6 °F /  -6.3 °C 15.4 °F /  -9.2 °C 29.95in /  1014.1hPa South 2.0mph /  3.2km/h 4.0mph /  6.4km/h 80% 0.00in /  0mm
23:29 20.7 °F /  -6.3 °C 15.5 °F /  -9.2 °C 29.95in /  1014.1hPa South 2.0mph /  3.2km/h 4.0mph /  6.4km/h 80% 0.00in /  0mm
23:34 20.8 °F /  -6.2 °C 15.9 °F /  -8.9 °C 29.95in /  1014.1hPa Calm   5.0mph /  8km/h 81% 0.00in /  0mm
23:39 20.8 °F /  -6.2 °C 16.2 °F /  -8.8 °C 29.95in /  1014.1hPa SSE 2.0mph /  3.2km/h 4.0mph /  6.4km/h 82% 0.00in /  0mm
23:44 20.9 °F /  -6.2 °C 16.3 °F /  -8.7 °C 29.95in /  1014.1hPa SSE 2.0mph /  3.2km/h 4.0mph /  6.4km/h 82% 0.00in /  0mm
23:49 20.8 °F /  -6.2 °C 16.2 °F /  -8.8 °C 29.95in /  1014.1hPa SSE 2.0mph /  3.2km/h 4.0mph /  6.4km/h 82% 0.00in /  0mm
23:54 20.8 °F /  -6.2 °C 16.5 °F /  -8.6 °C 29.94in /  1013.8hPa SE 2.0mph /  3.2km/h 5.0mph /  8km/h 83% 0.00in /  0mm
23:59 20.7 °F /  -6.3 °C 16.6 °F /  -8.6 °C 29.95in /  1014.1hPa Calm   3.0mph /  4.8km/h 84% 0.00in /  0mm
Buffalo, New York, USA
Compliments of Weather Underground - 2.25 mb